WXM80 ListenWXM80 Stop

You find our weather info also at:

UK Metoffice

WeatherCloud

Weather Underground

Northeastern Weather Network

AWEKAS

Citizen Weather Observer Program (CWOP)

HAMweather, WeatherForYou, PWS Weather


Weather Underground History page Text

Daily Summary for August 9, 2017 Units:  English    Metric   Both
« Previous Day
Next Day »
Daily Weekly Monthly Yearly Custom
  High: Low: Average:
Temperature: 86.5 °F 62.0 °F 73.9 °F
Dew Point: 65.5 °F 57.6 °F 62.4 °F
Humidity: 96 % 38 % 71 %
Wind Speed: 4.0 mph 0.0 mph 0.5 mph
Wind Gust: 9.2 mph - -
Wind:- - South
Pressure: 30.19 in 30.04 in -
Precipitation: 0.00 in    
Historical Graphs
 
 
Tabular Data for August 9, 2017
Time Temperature Dew Point Pressure Wind Wind Speed Wind Gust Humidity Rainfall Rate (Hourly)
00:03 65.9 °F 61.9 °F 30.04 in WNW 0.1 mph 1.0 mph 87 % 0.00 in
00:08 65.9 °F 62.2 °F 30.04 in Calm     88 % 0.00 in
00:13 65.9 °F 62.2 °F 30.04 in Calm     88 % 0.00 in
00:18 65.9 °F 62.6 °F 30.04 in Calm     89 % 0.00 in
00:23 65.9 °F 62.6 °F 30.04 in Calm     89 % 0.00 in
00:28 65.9 °F 62.6 °F 30.04 in Calm     89 % 0.00 in
00:33 65.9 °F 62.6 °F 30.05 in Calm     89 % 0.00 in
00:38 65.9 °F 62.6 °F 30.04 in Calm     89 % 0.00 in
00:43 65.9 °F 62.9 °F 30.04 in Calm     90 % 0.00 in
00:48 65.9 °F 62.9 °F 30.04 in Calm     90 % 0.00 in
00:49 65.9 °F 62.9 °F 30.04 in Calm     90 % 0.00 in
00:54 65.9 °F 62.9 °F 30.04 in Calm     90 % 0.00 in
00:59 65.9 °F 62.9 °F 30.04 in Calm     90 % 0.00 in
01:04 65.9 °F 63.2 °F 30.04 in Calm     91 % 0.00 in
01:09 65.9 °F 63.2 °F 30.05 in Calm   1.2 mph 91 % 0.00 in
01:14 65.8 °F 63.1 °F 30.05 in WNW 0.1 mph 1.2 mph 91 % 0.00 in
01:19 65.8 °F 63.1 °F 30.05 in WNW 0.1 mph 1.2 mph 91 % 0.00 in
01:24 65.8 °F 63.1 °F 30.05 in WNW 0.1 mph 2.3 mph 91 % 0.00 in
01:29 65.8 °F 63.1 °F 30.05 in Calm   1.2 mph 91 % 0.00 in
01:34 65.8 °F 63.1 °F 30.05 in Calm     91 % 0.00 in
01:39 65.8 °F 63.4 °F 30.05 in Calm     92 % 0.00 in
01:44 65.7 °F 63.0 °F 30.05 in WNW 0.1 mph   91 % 0.00 in
01:49 65.7 °F 63.3 °F 30.05 in Calm     92 % 0.00 in
01:55 65.7 °F 63.3 °F 30.05 in Calm   1.0 mph 92 % 0.00 in
02:00 65.6 °F 63.2 °F 30.05 in WNW 0.1 mph 1.2 mph 92 % 0.00 in
02:05 65.6 °F 63.2 °F 30.05 in Calm   1.2 mph 92 % 0.00 in
02:10 65.6 °F 63.2 °F 30.05 in WNW 0.7 mph 3.5 mph 92 % 0.00 in
02:15 65.5 °F 63.1 °F 30.06 in West 0.6 mph 3.5 mph 92 % 0.00 in
02:20 65.6 °F 63.5 °F 30.05 in WSW 0.9 mph 2.3 mph 93 % 0.00 in
02:25 65.6 °F 63.5 °F 30.05 in Calm   2.3 mph 93 % 0.00 in
02:30 65.6 °F 63.5 °F 30.06 in WSW 0.6 mph 2.3 mph 93 % 0.00 in
02:35 65.6 °F 63.5 °F 30.06 in West 0.9 mph 3.5 mph 93 % 0.00 in
02:40 65.7 °F 63.6 °F 30.06 in West 0.7 mph 2.3 mph 93 % 0.00 in
02:45 65.7 °F 63.6 °F 30.06 in WNW 0.9 mph 2.3 mph 93 % 0.00 in
02:50 65.8 °F 63.7 °F 30.06 in WNW 0.4 mph 3.5 mph 93 % 0.00 in
02:55 65.8 °F 63.7 °F 30.06 in WNW 0.1 mph 1.2 mph 93 % 0.00 in
03:00 65.8 °F 63.7 °F 30.06 in WNW 1.4 mph 3.5 mph 93 % 0.00 in
03:05 65.8 °F 63.7 °F 30.06 in WNW 0.6 mph 2.3 mph 93 % 0.00 in
03:10 65.8 °F 63.7 °F 30.06 in WNW 0.3 mph 1.2 mph 93 % 0.00 in
03:15 65.8 °F 63.7 °F 30.06 in Calm     93 % 0.00 in
03:20 65.8 °F 63.4 °F 30.07 in Calm   1.2 mph 92 % 0.00 in
03:25 65.8 °F 63.4 °F 30.07 in Calm     92 % 0.00 in
03:30 65.8 °F 63.4 °F 30.07 in Calm     92 % 0.00 in
03:35 65.7 °F 63.3 °F 30.07 in Calm     92 % 0.00 in
03:40 65.7 °F 63.3 °F 30.07 in Calm     92 % 0.00 in
03:45 65.7 °F 63.3 °F 30.07 in Calm     92 % 0.00 in
03:51 65.6 °F 62.9 °F 30.07 in Calm     91 % 0.00 in
03:56 65.5 °F 62.8 °F 30.07 in Calm     91 % 0.00 in
04:01 65.4 °F 62.7 °F 30.08 in Calm     91 % 0.00 in
04:06 65.3 °F 62.6 °F 30.08 in Calm     91 % 0.00 in
04:11 65.2 °F 62.5 °F 30.08 in Calm     91 % 0.00 in
04:16 65.1 °F 62.4 °F 30.08 in WNW 0.1 mph 1.2 mph 91 % 0.00 in
04:21 65.0 °F 62.6 °F 30.08 in Calm     92 % 0.00 in
04:26 65.0 °F 62.6 °F 30.08 in NW 1.1 mph 3.5 mph 92 % 0.00 in
04:31 65.0 °F 62.6 °F 30.08 in Calm   1.2 mph 92 % 0.00 in
04:36 65.0 °F 62.9 °F 30.08 in Calm     93 % 0.00 in
04:41 65.0 °F 62.9 °F 30.08 in Calm     93 % 0.00 in
04:46 65.0 °F 62.9 °F 30.08 in Calm     93 % 0.00 in
04:51 64.9 °F 62.8 °F 30.08 in Calm     93 % 0.00 in
04:56 64.8 °F 62.7 °F 30.08 in Calm     93 % 0.00 in
05:01 64.7 °F 62.6 °F 30.08 in Calm     93 % 0.00 in
05:06 64.6 °F 62.2 °F 30.09 in Calm     92 % 0.00 in
05:11 64.4 °F 62.0 °F 30.09 in Calm     92 % 0.00 in
05:16 64.2 °F 61.8 °F 30.09 in Calm     92 % 0.00 in
05:21 64.1 °F 61.7 °F 30.09 in Calm     92 % 0.00 in
05:26 63.9 °F 61.5 °F 30.09 in Calm     92 % 0.00 in
05:31 63.7 °F 61.3 °F 30.09 in Calm     92 % 0.00 in
05:36 63.5 °F 61.1 °F 30.09 in Calm     92 % 0.00 in
05:41 63.3 °F 60.9 °F 30.09 in Calm     92 % 0.00 in
05:46 63.2 °F 60.8 °F 30.10 in Calm     92 % 0.00 in
05:51 63.0 °F 60.6 °F 30.10 in Calm     92 % 0.00 in
05:56 62.9 °F 60.5 °F 30.10 in Calm     92 % 0.00 in
06:01 62.7 °F 60.3 °F 30.10 in Calm     92 % 0.00 in
06:06 62.6 °F 60.2 °F 30.11 in Calm     92 % 0.00 in
06:11 62.4 °F 60.0 °F 30.11 in Calm     92 % 0.00 in
06:16 62.3 °F 59.9 °F 30.11 in Calm     92 % 0.00 in
06:19 62.2 °F 59.8 °F 30.11 in Calm     92 % 0.00 in
06:24 62.2 °F 59.8 °F 30.11 in Calm     92 % 0.00 in
06:29 62.1 °F 60.1 °F 30.12 in Calm     93 % 0.00 in
06:34 62.0 °F 60.0 °F 30.12 in Calm   1.2 mph 93 % 0.00 in
06:39 62.1 °F 60.1 °F 30.12 in NW 0.6 mph 2.3 mph 93 % 0.00 in
06:44 62.2 °F 60.5 °F 30.12 in Calm     94 % 0.00 in
06:49 62.4 °F 60.9 °F 30.12 in NNE 0.8 mph 3.5 mph 95 % 0.00 in
06:54 62.6 °F 61.1 °F 30.13 in Calm     95 % 0.00 in
06:59 62.7 °F 61.2 °F 30.13 in Calm   1.0 mph 95 % 0.00 in
07:04 62.9 °F 61.4 °F 30.13 in Calm   3.5 mph 95 % 0.00 in
07:09 63.2 °F 62.0 °F 30.13 in North 0.3 mph 2.0 mph 96 % 0.00 in
07:14 63.6 °F 62.4 °F 30.13 in Calm   2.3 mph 96 % 0.00 in
07:19 64.0 °F 62.8 °F 30.13 in Calm   2.3 mph 96 % 0.00 in
07:24 64.4 °F 63.2 °F 30.13 in North 0.1 mph 1.2 mph 96 % 0.00 in
07:29 64.8 °F 63.6 °F 30.13 in Calm   1.2 mph 96 % 0.00 in
07:35 65.1 °F 63.9 °F 30.13 in North 0.4 mph 2.3 mph 96 % 0.00 in
07:40 65.4 °F 64.2 °F 30.13 in North 0.3 mph 2.3 mph 96 % 0.00 in
07:45 65.6 °F 64.1 °F 30.14 in Calm   1.2 mph 95 % 0.00 in
07:50 65.8 °F 64.0 °F 30.14 in WNW 0.4 mph 2.3 mph 94 % 0.00 in
07:55 65.9 °F 63.8 °F 30.14 in Calm   2.3 mph 93 % 0.00 in
08:00 66.1 °F 63.4 °F 30.14 in Calm     91 % 0.00 in
08:05 66.4 °F 63.7 °F 30.14 in WNW 0.1 mph 1.2 mph 91 % 0.00 in
08:10 66.6 °F 63.3 °F 30.14 in North 1.6 mph 3.5 mph 89 % 0.00 in
08:15 66.7 °F 63.0 °F 30.14 in Calm     88 % 0.00 in
08:20 66.9 °F 63.2 °F 30.14 in North 1.1 mph 2.3 mph 88 % 0.00 in
08:25 67.1 °F 63.4 °F 30.14 in Calm   2.3 mph 88 % 0.00 in
08:30 67.2 °F 62.9 °F 30.15 in Calm   1.0 mph 86 % 0.00 in
08:35 67.4 °F 63.1 °F 30.15 in North 1.2 mph 2.3 mph 86 % 0.00 in
08:40 67.5 °F 63.2 °F 30.15 in North 0.1 mph 1.2 mph 86 % 0.00 in
08:45 67.6 °F 63.3 °F 30.15 in North 1.6 mph 3.5 mph 86 % 0.00 in
08:50 67.7 °F 63.0 °F 30.15 in North 0.5 mph 2.0 mph 85 % 0.00 in
08:55 67.8 °F 63.1 °F 30.15 in Calm     85 % 0.00 in
09:00 67.9 °F 63.2 °F 30.15 in North 0.5 mph 2.0 mph 85 % 0.00 in
09:05 68.1 °F 63.1 °F 30.15 in North 0.7 mph 2.3 mph 84 % 0.00 in
09:10 68.2 °F 62.8 °F 30.15 in Calm   1.2 mph 83 % 0.00 in
09:15 68.4 °F 62.3 °F 30.15 in North 0.8 mph 3.5 mph 81 % 0.00 in
09:20 68.6 °F 62.5 °F 30.15 in Calm     81 % 0.00 in
09:25 68.7 °F 62.3 °F 30.16 in NNE 1.4 mph 2.0 mph 80 % 0.00 in
09:30 68.9 °F 62.8 °F 30.15 in NNE 2.4 mph 3.5 mph 81 % 0.00 in
09:35 69.1 °F 62.7 °F 30.16 in NNE 0.6 mph 3.5 mph 80 % 0.00 in
09:40 69.3 °F 62.1 °F 30.16 in NNE 0.1 mph 1.2 mph 78 % 0.00 in
09:45 69.5 °F 62.7 °F 30.16 in NE 1.3 mph 3.5 mph 79 % 0.00 in
09:50 69.8 °F 61.5 °F 30.16 in NNE 1.0 mph 2.3 mph 75 % 0.00 in
09:53 69.9 °F 62.0 °F 30.16 in NNE 2.2 mph 3.0 mph 76 % 0.00 in
09:58 70.3 °F 62.4 °F 30.16 in Calm   1.2 mph 76 % 0.00 in
10:03 70.7 °F 62.4 °F 30.16 in NNW 0.2 mph 1.2 mph 75 % 0.00 in
10:08 71.4 °F 62.7 °F 30.16 in NNW 2.0 mph 3.5 mph 74 % 0.00 in
10:13 72.1 °F 61.4 °F 30.16 in Calm   1.2 mph 69 % 0.00 in
10:18 73.3 °F 64.1 °F 30.16 in NW 0.7 mph 2.3 mph 73 % 0.00 in
10:23 74.4 °F 61.9 °F 30.16 in NW 1.5 mph 4.0 mph 65 % 0.00 in
10:28 75.3 °F 62.7 °F 30.16 in North 1.9 mph 3.5 mph 65 % 0.00 in
10:33 76.4 °F 62.9 °F 30.16 in WNW 0.3 mph 2.3 mph 63 % 0.00 in
10:38 77.2 °F 63.2 °F 30.16 in North 0.7 mph 2.3 mph 62 % 0.00 in
10:43 78.3 °F 64.2 °F 30.16 in NNE 3.2 mph 4.6 mph 62 % 0.00 in
10:48 79.0 °F 64.9 °F 30.16 in NNE 0.9 mph 2.3 mph 62 % 0.00 in
10:53 79.7 °F 64.6 °F 30.17 in WNW 2.6 mph 4.6 mph 60 % 0.00 in
10:58 80.2 °F 65.5 °F 30.17 in WNW 1.6 mph 4.0 mph 61 % 0.00 in
11:03 80.5 °F 64.4 °F 30.16 in NW 0.1 mph 2.3 mph 58 % 0.00 in
11:08 81.1 °F 62.9 °F 30.17 in WNW 1.7 mph 3.5 mph 54 % 0.00 in
11:13 81.5 °F 61.6 °F 30.16 in WNW 0.4 mph 1.2 mph 51 % 0.00 in
11:18 81.7 °F 61.8 °F 30.17 in WNW 1.7 mph 3.5 mph 51 % 0.00 in
11:23 82.0 °F 59.2 °F 30.16 in Calm   1.0 mph 46 % 0.00 in
11:28 82.4 °F 63.5 °F 30.17 in North 0.2 mph 3.5 mph 53 % 0.00 in
11:33 82.8 °F 62.3 °F 30.17 in NW 1.1 mph 4.0 mph 50 % 0.00 in
11:38 83.1 °F 60.2 °F 30.17 in NNE 1.0 mph 3.5 mph 46 % 0.00 in
11:43 83.3 °F 59.7 °F 30.17 in North 2.1 mph 3.5 mph 45 % 0.00 in
11:48 83.6 °F 63.0 °F 30.17 in NNW 1.0 mph 2.0 mph 50 % 0.00 in
11:53 84.1 °F 63.5 °F 30.16 in North 1.4 mph 4.0 mph 50 % 0.00 in
11:58 84.4 °F 62.0 °F 30.16 in NNE 0.7 mph 2.3 mph 47 % 0.00 in
12:03 84.7 °F 61.0 °F 30.16 in NNE 4.0 mph 6.0 mph 45 % 0.00 in
12:08 84.8 °F 59.8 °F 30.16 in NW 0.6 mph 3.5 mph 43 % 0.00 in
12:14 85.1 °F 58.8 °F 30.16 in North 0.3 mph 2.3 mph 41 % 0.00 in
12:19 85.4 °F 61.6 °F 30.16 in North 1.7 mph 4.0 mph 45 % 0.00 in
12:24 85.7 °F 62.5 °F 30.16 in North 0.6 mph 2.3 mph 46 % 0.00 in
12:29 86.0 °F 60.9 °F 30.16 in North 1.3 mph 2.3 mph 43 % 0.00 in
12:34 86.3 °F 62.5 °F 30.16 in North 3.9 mph 4.6 mph 45 % 0.00 in
12:39 86.4 °F 61.9 °F 30.16 in North 1.3 mph 3.5 mph 44 % 0.00 in
12:43 86.4 °F 60.6 °F 30.16 in NNE 0.8 mph 3.5 mph 42 % 0.00 in
12:48 86.4 °F 59.9 °F 30.16 in Calm   1.2 mph 41 % 0.00 in
12:53 86.4 °F 62.5 °F 30.15 in North 0.3 mph 2.3 mph 45 % 0.00 in
12:58 86.5 °F 61.3 °F 30.15 in NNE 1.6 mph 3.5 mph 43 % 0.00 in
13:03 86.4 °F 60.6 °F 30.16 in NE 0.6 mph 2.3 mph 42 % 0.00 in
13:08 86.2 °F 59.7 °F 30.15 in NE 1.1 mph 3.5 mph 41 % 0.00 in
13:13 86.0 °F 59.6 °F 30.16 in NE 0.4 mph 2.3 mph 41 % 0.00 in
13:18 86.0 °F 60.9 °F 30.16 in NE 0.3 mph 2.3 mph 43 % 0.00 in
13:23 85.9 °F 61.5 °F 30.16 in NE 0.1 mph 1.2 mph 44 % 0.00 in
13:28 85.9 °F 60.1 °F 30.15 in Calm     42 % 0.00 in
13:33 85.9 °F 59.5 °F 30.15 in NE 0.2 mph 1.2 mph 41 % 0.00 in
13:38 86.2 °F 61.7 °F 30.15 in NNW 2.2 mph 3.0 mph 44 % 0.00 in
13:44 86.5 °F 61.3 °F 30.15 in NE 1.2 mph 4.0 mph 43 % 0.00 in
13:49 86.3 °F 57.7 °F 30.15 in NNE 1.1 mph 3.5 mph 38 % 0.00 in
13:50 86.3 °F 60.5 °F 30.15 in NNE 0.5 mph 1.2 mph 42 % 0.00 in
13:55 86.2 °F 57.6 °F 30.15 in NE 1.6 mph 2.3 mph 38 % 0.00 in
14:00 86.1 °F 60.3 °F 30.14 in Calm     42 % 0.00 in
14:05 86.0 °F 60.2 °F 30.15 in ENE 1.0 mph 3.5 mph 42 % 0.00 in
14:10 85.9 °F 60.1 °F 30.14 in ENE 0.6 mph 2.3 mph 42 % 0.00 in
14:15 85.9 °F 58.8 °F 30.14 in ENE 0.5 mph 1.2 mph 40 % 0.00 in
14:21 86.1 °F 60.3 °F 30.14 in ENE 1.1 mph 2.3 mph 42 % 0.00 in
14:25 86.0 °F 59.6 °F 30.14 in Calm   1.2 mph 41 % 0.00 in
14:30 86.0 °F 58.2 °F 30.14 in NE 1.5 mph 3.0 mph 39 % 0.00 in
14:35 85.8 °F 58.7 °F 30.14 in NE 1.3 mph 3.5 mph 40 % 0.00 in
14:40 85.7 °F 60.0 °F 30.14 in NE 0.2 mph 1.2 mph 42 % 0.00 in
14:45 85.7 °F 60.6 °F 30.14 in NE 0.4 mph 1.2 mph 43 % 0.00 in
14:50 85.8 °F 60.1 °F 30.14 in NE 1.0 mph 3.5 mph 42 % 0.00 in
14:55 85.7 °F 58.6 °F 30.14 in Calm   2.3 mph 40 % 0.00 in
15:00 85.7 °F 59.3 °F 30.14 in NNE 1.4 mph 3.5 mph 41 % 0.00 in
15:05 85.8 °F 60.7 °F 30.14 in NE 0.4 mph 2.3 mph 43 % 0.00 in
15:10 85.7 °F 59.3 °F 30.13 in NE 1.6 mph 4.0 mph 41 % 0.00 in
15:16 85.7 °F 60.0 °F 30.14 in Calm   1.2 mph 42 % 0.00 in
15:21 85.8 °F 60.1 °F 30.14 in ENE 1.0 mph 2.0 mph 42 % 0.00 in
15:26 85.7 °F 60.6 °F 30.14 in Calm   3.0 mph 43 % 0.00 in
15:31 85.7 °F 61.3 °F 30.14 in NE 1.0 mph 3.0 mph 44 % 0.00 in
15:36 85.6 °F 59.9 °F 30.14 in ENE 1.0 mph 2.0 mph 42 % 0.00 in
15:41 85.6 °F 60.5 °F 30.13 in Calm   1.0 mph 43 % 0.00 in
15:46 85.6 °F 59.2 °F 30.13 in NE 1.0 mph 3.0 mph 41 % 0.00 in
15:51 85.5 °F 60.4 °F 30.13 in NE 1.0 mph 4.0 mph 43 % 0.00 in
15:56 85.6 °F 60.5 °F 30.13 in Calm   1.0 mph 43 % 0.00 in
16:01 85.6 °F 59.9 °F 30.13 in ENE 0.5 mph 3.5 mph 42 % 0.00 in
16:06 85.6 °F 60.5 °F 30.12 in ENE 0.3 mph 2.3 mph 43 % 0.00 in
16:11 85.6 °F 60.5 °F 30.13 in NE 0.2 mph 3.5 mph 43 % 0.00 in
16:16 85.6 °F 61.8 °F 30.12 in NE 0.2 mph 1.2 mph 45 % 0.00 in
16:21 85.8 °F 61.4 °F 30.12 in NE 0.4 mph 2.3 mph 44 % 0.00 in
16:26 85.9 °F 62.1 °F 30.12 in Calm     45 % 0.00 in
16:31 86.1 °F 59.6 °F 30.12 in NE 0.5 mph 2.3 mph 41 % 0.00 in
16:36 86.2 °F 59.7 °F 30.13 in NE 0.5 mph 1.2 mph 41 % 0.00 in
16:41 86.1 °F 59.6 °F 30.12 in NNE 0.3 mph 1.2 mph 41 % 0.00 in
16:46 86.1 °F 61.6 °F 30.12 in Calm     44 % 0.00 in
16:51 86.1 °F 61.0 °F 30.12 in Calm     43 % 0.00 in
16:56 86.1 °F 61.0 °F 30.12 in Calm     43 % 0.00 in
17:01 86.2 °F 59.7 °F 30.12 in WSW 2.0 mph 3.5 mph 41 % 0.00 in
17:06 86.5 °F 60.7 °F 30.12 in Calm   1.2 mph 42 % 0.00 in
17:11 86.2 °F 61.1 °F 30.12 in Calm     43 % 0.00 in
17:16 85.9 °F 62.7 °F 30.12 in SSW 0.2 mph 3.5 mph 46 % 0.00 in
17:21 86.0 °F 64.0 °F 30.12 in Calm   1.2 mph 48 % 0.00 in
17:26 86.1 °F 63.5 °F 30.12 in SE 1.6 mph 3.0 mph 47 % 0.00 in
17:31 85.7 °F 64.3 °F 30.12 in WSW 0.8 mph 3.5 mph 49 % 0.00 in
17:36 85.6 °F 63.1 °F 30.12 in SE 3.2 mph 5.0 mph 47 % 0.00 in
17:41 85.0 °F 62.5 °F 30.11 in SE 1.6 mph 4.6 mph 47 % 0.00 in
17:46 84.5 °F 63.2 °F 30.12 in SE 2.8 mph 5.8 mph 49 % 0.00 in
17:51 83.9 °F 63.3 °F 30.11 in SE 1.4 mph 2.3 mph 50 % 0.00 in
17:56 83.4 °F 63.4 °F 30.11 in SSE 0.4 mph 2.3 mph 51 % 0.00 in
18:01 83.1 °F 63.7 °F 30.11 in SSW 0.2 mph 1.2 mph 52 % 0.00 in
18:06 82.7 °F 62.7 °F 30.12 in WSW 0.2 mph 2.0 mph 51 % 0.00 in
18:11 82.4 °F 63.5 °F 30.12 in SE 3.8 mph 5.8 mph 53 % 0.00 in
18:16 81.8 °F 63.5 °F 30.12 in SE 1.3 mph 3.5 mph 54 % 0.00 in
18:21 81.4 °F 63.7 °F 30.12 in SE 1.3 mph 9.2 mph 55 % 0.00 in
18:27 81.0 °F 63.8 °F 30.12 in SE 0.2 mph 1.2 mph 56 % 0.00 in
18:32 80.8 °F 63.6 °F 30.12 in SE 0.9 mph 3.5 mph 56 % 0.00 in
18:37 80.5 °F 63.4 °F 30.13 in SSE 0.1 mph 2.3 mph 56 % 0.00 in
18:42 80.3 °F 63.7 °F 30.13 in SSE 0.2 mph 2.3 mph 57 % 0.00 in
18:47 80.1 °F 63.5 °F 30.13 in SSE 1.7 mph 4.6 mph 57 % 0.00 in
18:52 79.7 °F 63.1 °F 30.13 in SE 0.2 mph 1.2 mph 57 % 0.00 in
18:54 79.6 °F 63.5 °F 30.13 in Calm   2.3 mph 58 % 0.00 in
18:59 79.3 °F 63.2 °F 30.14 in SSE 0.2 mph 1.2 mph 58 % 0.00 in
19:04 79.1 °F 63.1 °F 30.14 in SSW 0.4 mph 3.5 mph 58 % 0.00 in
19:09 78.9 °F 63.4 °F 30.14 in SE 1.0 mph 3.5 mph 59 % 0.00 in
19:14 78.6 °F 63.1 °F 30.14 in SE 1.6 mph 4.6 mph 59 % 0.00 in
19:19 78.3 °F 63.3 °F 30.14 in SE 0.5 mph 1.2 mph 60 % 0.00 in
19:24 78.1 °F 63.1 °F 30.14 in SE 0.1 mph 2.3 mph 60 % 0.00 in
19:29 77.7 °F 63.2 °F 30.14 in Calm     61 % 0.00 in
19:34 77.5 °F 63.5 °F 30.14 in SE 0.1 mph 1.2 mph 62 % 0.00 in
19:39 77.3 °F 63.3 °F 30.14 in Calm     62 % 0.00 in
19:44 77.1 °F 63.5 °F 30.14 in Calm   1.2 mph 63 % 0.00 in
19:49 76.9 °F 63.8 °F 30.15 in Calm     64 % 0.00 in
19:54 76.6 °F 63.5 °F 30.15 in SE 0.1 mph 1.0 mph 64 % 0.00 in
19:59 76.3 °F 63.7 °F 30.15 in Calm     65 % 0.00 in
20:04 75.9 °F 63.7 °F 30.15 in Calm     66 % 0.00 in
20:09 75.6 °F 63.9 °F 30.15 in SE 0.3 mph 1.2 mph 67 % 0.00 in
20:14 75.2 °F 63.5 °F 30.15 in Calm     67 % 0.00 in
20:19 75.0 °F 63.7 °F 30.15 in SE 0.2 mph 2.3 mph 68 % 0.00 in
20:24 74.7 °F 63.9 °F 30.15 in Calm     69 % 0.00 in
20:29 74.4 °F 64.0 °F 30.15 in SE 0.5 mph 3.0 mph 70 % 0.00 in
20:34 74.2 °F 63.8 °F 30.15 in Calm   2.3 mph 70 % 0.00 in
20:39 74.1 °F 63.7 °F 30.16 in Calm   1.2 mph 70 % 0.00 in
20:44 74.0 °F 64.0 °F 30.16 in SE 0.1 mph   71 % 0.00 in
20:49 73.8 °F 63.8 °F 30.16 in SE 0.1 mph 1.2 mph 71 % 0.00 in
20:54 73.6 °F 64.0 °F 30.16 in SE 0.1 mph   72 % 0.00 in
20:59 73.4 °F 63.8 °F 30.16 in SW 0.1 mph   72 % 0.00 in
21:04 73.2 °F 64.0 °F 30.17 in Calm   1.2 mph 73 % 0.00 in
21:09 73.0 °F 64.2 °F 30.17 in SW 0.1 mph 1.2 mph 74 % 0.00 in
21:14 72.8 °F 64.4 °F 30.17 in Calm   1.2 mph 75 % 0.00 in
21:20 72.6 °F 64.6 °F 30.17 in Calm   1.2 mph 76 % 0.00 in
21:25 72.3 °F 64.3 °F 30.17 in Calm     76 % 0.00 in
21:30 72.2 °F 64.6 °F 30.17 in Calm   1.2 mph 77 % 0.00 in
21:35 72.0 °F 64.8 °F 30.17 in Calm     78 % 0.00 in
21:40 71.9 °F 64.7 °F 30.17 in Calm   1.2 mph 78 % 0.00 in
21:45 71.7 °F 64.5 °F 30.18 in Calm   1.2 mph 78 % 0.00 in
21:50 71.6 °F 64.7 °F 30.18 in SW 0.1 mph 1.2 mph 79 % 0.00 in
21:55 71.5 °F 64.6 °F 30.18 in Calm   1.2 mph 79 % 0.00 in
22:00 71.4 °F 64.5 °F 30.18 in Calm   1.2 mph 79 % 0.00 in
22:05 71.3 °F 64.4 °F 30.18 in Calm   1.2 mph 79 % 0.00 in
22:10 71.2 °F 64.0 °F 30.18 in SW 0.2 mph 2.3 mph 78 % 0.00 in
22:15 71.1 °F 63.5 °F 30.18 in Calm   1.2 mph 77 % 0.00 in
22:20 71.0 °F 63.8 °F 30.18 in West 0.2 mph 1.2 mph 78 % 0.00 in
22:25 70.9 °F 63.7 °F 30.18 in Calm     78 % 0.00 in
22:30 70.8 °F 63.6 °F 30.18 in SSW 0.1 mph 1.2 mph 78 % 0.00 in
22:35 70.7 °F 63.5 °F 30.19 in WSW 0.7 mph 2.0 mph 78 % 0.00 in
22:40 70.6 °F 63.8 °F 30.18 in WSW 0.2 mph 2.3 mph 79 % 0.00 in
22:45 70.5 °F 63.7 °F 30.18 in Calm     79 % 0.00 in
22:50 70.4 °F 63.6 °F 30.18 in Calm   2.0 mph 79 % 0.00 in
22:55 70.4 °F 63.6 °F 30.18 in Calm     79 % 0.00 in
23:00 70.3 °F 63.5 °F 30.18 in WSW 0.7 mph 1.2 mph 79 % 0.00 in
23:05 70.2 °F 63.4 °F 30.18 in WSW 0.8 mph 1.2 mph 79 % 0.00 in
23:11 70.1 °F 63.6 °F 30.18 in WSW 0.4 mph 2.3 mph 80 % 0.00 in
23:16 70.0 °F 63.5 °F 30.18 in Calm   1.2 mph 80 % 0.00 in
23:21 70.0 °F 63.5 °F 30.18 in SW 1.1 mph 2.3 mph 80 % 0.00 in
23:23 69.9 °F 63.4 °F 30.18 in SW 0.2 mph 1.2 mph 80 % 0.00 in
23:25 69.9 °F 63.8 °F 30.18 in SW 0.6 mph 1.2 mph 81 % 0.00 in
23:30 69.8 °F 63.7 °F 30.18 in SW 0.1 mph 1.2 mph 81 % 0.00 in
23:35 69.8 °F 64.1 °F 30.18 in SW 0.6 mph 2.3 mph 82 % 0.00 in
23:37 69.8 °F 64.1 °F 30.18 in SW 1.7 mph 2.3 mph 82 % 0.00 in
23:42 69.7 °F 64.3 °F 30.18 in SW 0.3 mph 2.3 mph 83 % 0.00 in
23:47 69.6 °F 64.2 °F 30.18 in Calm   3.5 mph 83 % 0.00 in
23:52 69.5 °F 64.1 °F 30.18 in SW 0.3 mph 1.2 mph 83 % 0.00 in
23:58 69.5 °F 64.1 °F 30.18 in Calm   1.2 mph 83 % 0.00 in
Crab Meadow Weather
Compliments of Weather Underground - 3 mb

Script developed by  Jim McMurry - jmcmurry@mwt.net Adapted for the template by  Wim van der Kuil - Leuven-Template.eu

Extremes: Alaska and Hawaii have the same heat record. In Pahala, Hawaii the temperature on April 27, 1931 was 100 degrees F. Alaska's state heat record is also 100 degrees F. on June 27, 1915 at Fort Yukon.